createdAt,value
2022-08-17T00:00:43.332Z,97932.97
2022-08-17T00:03:10.587Z,97922.91
2022-08-17T00:05:36.821Z,97925.16
2022-08-17T00:08:03.087Z,97923.31
2022-08-17T00:10:29.298Z,97920.16
2022-08-17T00:12:58.539Z,97929.66
2022-08-17T00:15:24.693Z,97934.19
2022-08-17T00:17:50.850Z,97933.66
2022-08-17T00:20:17.020Z,97935.91
2022-08-17T00:22:44.669Z,97935.84
2022-08-17T00:25:10.818Z,97927.44
2022-08-17T00:27:37.032Z,97935.84
2022-08-17T00:30:03.197Z,97930.91
2022-08-17T00:33:14.245Z,97931.44
2022-08-17T00:35:15.494Z,97924.16
2022-08-17T00:37:41.641Z,97924.91
2022-08-17T00:40:07.852Z,97925.38
2022-08-17T00:42:34.066Z,97923.16
2022-08-17T00:45:00.226Z,97920.69
2022-08-17T00:47:26.383Z,97920.19
2022-08-17T00:49:52.555Z,97913.97
2022-08-17T00:52:18.703Z,97908.88
2022-08-17T00:54:44.831Z,97913.50
2022-08-17T00:57:10.956Z,97911.56
2022-08-17T00:59:37.114Z,97911.28
2022-08-17T01:02:03.263Z,97902.63
2022-08-17T01:04:29.400Z,97899.38
2022-08-17T01:06:55.573Z,97908.34
2022-08-17T01:09:21.729Z,97902.84
2022-08-17T01:11:47.856Z,97904.25
2022-08-17T01:14:14.022Z,97896.13
2022-08-17T01:16:40.155Z,97902.63
2022-08-17T01:19:06.292Z,97898.81
2022-08-17T01:21:32.478Z,97894.50
2022-08-17T01:23:58.607Z,97906.91
2022-08-17T01:26:24.750Z,97897.66
2022-08-17T01:28:55.110Z,97910.41
2022-08-17T01:31:21.868Z,97900.34
2022-08-17T01:33:48.081Z,97905.19
2022-08-17T01:36:14.290Z,97902.03
2022-08-17T01:38:40.421Z,97909.56
2022-08-17T01:41:06.570Z,97908.72
2022-08-17T01:43:32.710Z,97914.31
2022-08-17T01:46:03.632Z,97911.41
2022-08-17T01:48:30.448Z,97918.94
2022-08-17T01:50:56.629Z,97908.88
2022-08-17T01:53:22.764Z,97908.56
2022-08-17T01:55:48.894Z,97911.81
2022-08-17T01:58:15.053Z,97914.47
2022-08-17T02:00:59.464Z,97906.94
2022-08-17T02:03:27.285Z,97904.72
2022-08-17T02:05:53.436Z,97907.94
2022-08-17T02:08:19.989Z,97908.28
2022-08-17T02:10:46.671Z,97909.09
2022-08-17T02:13:13.071Z,97899.09
2022-08-17T02:15:39.206Z,97907.44
2022-08-17T02:18:05.362Z,97902.97
2022-08-17T02:20:42.044Z,97899.22
2022-08-17T02:23:09.032Z,97905.78
2022-08-17T02:25:35.164Z,97900.44
2022-08-17T02:28:01.308Z,97897.25
2022-08-17T02:30:59.427Z,97896.69
2022-08-17T02:33:13.586Z,97894.41
2022-08-17T02:35:39.742Z,97894.50
2022-08-17T02:38:05.887Z,97891.31
2022-08-17T02:40:35.059Z,97897.59
2022-08-17T02:43:02.955Z,97898.91
2022-08-17T02:45:29.253Z,97895.28
2022-08-17T02:47:55.396Z,97894.47
2022-08-17T02:50:21.556Z,97889.91
2022-08-17T02:52:51.514Z,97888.09
2022-08-17T02:55:29.136Z,97888.66
2022-08-17T02:57:55.270Z,97894.34
2022-08-17T03:00:21.406Z,97890.88
2022-08-17T03:02:47.574Z,97885.19
2022-08-17T03:05:13.714Z,97882.50
2022-08-17T03:07:39.845Z,97875.25
2022-08-17T03:10:06.011Z,97872.59
2022-08-17T03:12:32.150Z,97877.47
2022-08-17T03:14:58.303Z,97881.84
2022-08-17T03:17:24.444Z,97880.28
2022-08-17T03:19:50.595Z,97886.19
2022-08-17T03:22:35.500Z,97889.69
2022-08-17T03:25:02.866Z,97886.19
2022-08-17T03:27:30.055Z,97887.09
2022-08-17T03:29:56.196Z,97889.53
2022-08-17T03:32:22.357Z,97875.22
2022-08-17T03:34:48.490Z,97886.81
2022-08-17T03:37:14.628Z,97881.50
2022-08-17T03:39:40.845Z,97885.56
2022-08-17T03:42:07.053Z,97881.00
2022-08-17T03:44:33.982Z,97891.00
2022-08-17T03:47:00.128Z,97882.59
2022-08-17T03:49:26.273Z,97887.19
2022-08-17T03:51:52.402Z,97885.38
2022-08-17T03:54:18.549Z,97888.34
2022-08-17T03:56:44.710Z,97883.19
2022-08-17T03:59:10.858Z,97887.25
2022-08-17T04:01:47.444Z,97880.25
2022-08-17T04:04:13.610Z,97879.47
2022-08-17T04:06:39.736Z,97874.84
2022-08-17T04:09:05.902Z,97879.44
2022-08-17T04:11:32.057Z,97875.41
2022-08-17T04:13:58.211Z,97884.88
2022-08-17T04:16:24.346Z,97880.81
2022-08-17T04:18:50.479Z,97892.75
2022-08-17T04:21:16.619Z,97895.94
2022-08-17T04:23:42.768Z,97894.53
2022-08-17T04:26:09.031Z,97899.53
2022-08-17T04:28:35.163Z,97904.41
2022-08-17T04:31:01.311Z,97895.78
2022-08-17T04:33:27.462Z,97907.66
2022-08-17T04:35:53.617Z,97904.47
2022-08-17T04:38:19.783Z,97906.44
2022-08-17T04:40:45.915Z,97905.63
2022-08-17T04:43:12.050Z,97906.47
2022-08-17T04:45:38.243Z,97909.75
2022-08-17T04:48:04.389Z,97907.31
2022-08-17T04:50:30.527Z,97917.63
2022-08-17T04:52:57.016Z,97913.28
2022-08-17T04:55:23.360Z,97913.00
2022-08-17T04:57:49.489Z,97917.06
2022-08-17T05:00:15.697Z,97913.00
2022-08-17T05:02:49.983Z,97924.94
2022-08-17T05:05:16.720Z,97926.31
2022-08-17T05:07:42.852Z,97933.84
2022-08-17T05:10:08.993Z,97932.81
2022-08-17T05:12:35.156Z,97926.06
2022-08-17T05:15:01.300Z,97930.66
2022-08-17T05:17:27.436Z,97930.41
2022-08-17T05:19:53.583Z,97935.25
2022-08-17T05:22:19.726Z,97944.75
2022-08-17T05:24:53.324Z,97929.13
2022-08-17T05:27:20.674Z,97931.28
2022-08-17T05:29:46.810Z,97928.56
2022-08-17T05:32:38.034Z,97936.22
2022-08-17T05:34:59.549Z,97924.34
2022-08-17T05:37:25.688Z,97926.03
2022-08-17T05:39:51.835Z,97921.72
2022-08-17T05:42:18.023Z,97921.19
2022-08-17T05:44:44.174Z,97919.56
2022-08-17T05:47:10.308Z,97922.84
2022-08-17T05:49:37.054Z,97925.50
2022-08-17T05:52:03.196Z,97921.19
2022-08-17T05:54:29.358Z,97926.59
2022-08-17T05:56:55.527Z,97927.16
2022-08-17T05:59:21.668Z,97922.56
2022-08-17T06:01:47.868Z,97923.66
2022-08-17T06:04:14.488Z,97913.16
2022-08-17T06:06:40.618Z,97912.94
2022-08-17T06:09:06.745Z,97923.00
2022-08-17T06:11:32.882Z,97913.22
2022-08-17T06:14:01.426Z,97910.78
2022-08-17T06:16:33.088Z,97908.38
2022-08-17T06:19:00.728Z,97905.97
2022-08-17T06:21:30.384Z,97917.03
2022-08-17T06:23:58.137Z,97913.28
2022-08-17T06:26:27.496Z,97907.59
2022-08-17T06:29:00.662Z,97911.34
2022-08-17T06:31:26.811Z,97909.19
2022-08-17T06:33:52.963Z,97908.94
2022-08-17T06:36:19.133Z,97912.19
2022-08-17T06:38:45.342Z,97911.94
2022-08-17T06:41:11.485Z,97911.09
2022-08-17T06:43:37.632Z,97911.63
2022-08-17T06:46:04.098Z,97905.69
2022-08-17T06:48:30.322Z,97907.56
2022-08-17T06:50:56.464Z,97912.19
2022-08-17T06:53:23.096Z,97918.13
2022-08-17T06:55:49.268Z,97919.44
2022-08-17T06:58:16.309Z,97915.13
2022-08-17T07:00:43.114Z,97917.53
2022-08-17T07:03:09.832Z,97914.00
2022-08-17T07:05:36.277Z,97909.09
2022-08-17T07:08:04.922Z,97909.91
2022-08-17T07:10:31.058Z,97917.47
2022-08-17T07:12:57.197Z,97913.13
2022-08-17T07:15:23.353Z,97924.50
2022-08-17T07:17:49.561Z,97914.47
2022-08-17T07:20:15.722Z,97920.63
2022-08-17T07:22:57.590Z,97922.81
2022-08-17T07:25:26.501Z,97914.69
2022-08-17T07:27:52.806Z,97917.34
2022-08-17T07:30:19.065Z,97917.56
2022-08-17T07:32:45.213Z,97919.41
2022-08-17T07:35:11.600Z,97924.00
2022-08-17T07:37:37.879Z,97918.31
2022-08-17T07:40:15.086Z,97924.72
2022-08-17T07:42:45.095Z,97919.56
2022-08-17T07:45:12.972Z,97928.19
2022-08-17T07:47:39.132Z,97922.75
2022-08-17T07:50:05.308Z,97927.56
2022-08-17T07:52:51.236Z,97925.44
2022-08-17T07:55:17.595Z,97919.66
2022-08-17T07:57:43.799Z,97932.34
2022-08-17T08:00:13.479Z,97931.47
2022-08-17T08:02:42.593Z,97935.22
2022-08-17T08:05:10.044Z,97933.19
2022-08-17T08:07:36.314Z,97933.16
2022-08-17T08:10:02.538Z,97940.84
2022-08-17T08:12:33.310Z,97942.72
2022-08-17T08:14:59.920Z,97936.41
2022-08-17T08:17:26.083Z,97939.53
2022-08-17T08:19:52.234Z,97934.09
2022-08-17T08:22:18.373Z,97935.72
2022-08-17T08:24:44.529Z,97934.16
2022-08-17T08:27:10.664Z,97936.06
2022-08-17T08:29:36.799Z,97934.66
2022-08-17T08:32:03.052Z,97942.53
2022-08-17T08:34:46.324Z,97937.03
2022-08-17T08:37:22.615Z,97942.25
2022-08-17T08:39:53.925Z,97938.94
2022-08-17T08:42:20.193Z,97937.75
2022-08-17T08:45:00.011Z,97938.00
2022-08-17T08:47:30.547Z,97939.53
2022-08-17T08:50:04.875Z,97944.28
2022-08-17T08:52:31.672Z,97947.22
2022-08-17T08:54:57.798Z,97947.13
2022-08-17T08:57:29.026Z,97943.84
2022-08-17T08:59:58.322Z,97935.41
2022-08-17T09:02:24.733Z,97941.03
2022-08-17T09:05:13.281Z,97932.66
2022-08-17T09:07:37.116Z,97940.91
2022-08-17T09:10:03.262Z,97932.56
2022-08-17T09:12:29.416Z,97932.28
2022-08-17T09:14:55.568Z,97925.06
2022-08-17T09:17:21.773Z,97936.34
2022-08-17T09:19:47.939Z,97932.88
2022-08-17T09:22:14.119Z,97935.38
2022-08-17T09:24:40.253Z,97933.19
2022-08-17T09:27:06.407Z,97935.59
2022-08-17T09:29:32.578Z,97948.34
2022-08-17T09:31:58.719Z,97941.97
2022-08-17T09:34:28.162Z,97946.19
2022-08-17T09:36:59.373Z,97952.50
2022-08-17T09:39:25.540Z,97950.88
2022-08-17T09:41:51.708Z,97948.16
2022-08-17T09:44:23.410Z,97951.47
2022-08-17T09:46:50.081Z,97949.81
2022-08-17T09:49:16.212Z,97956.66
2022-08-17T09:51:42.416Z,97951.81
2022-08-17T09:54:35.220Z,97967.91
2022-08-17T09:57:18.108Z,97954.75
2022-08-17T09:59:40.837Z,97956.63
2022-08-17T10:02:08.092Z,97950.19
2022-08-17T10:04:39.391Z,97954.97
2022-08-17T10:07:05.616Z,97954.25
2022-08-17T10:09:31.786Z,97957.13
2022-08-17T10:11:58.722Z,97957.97
2022-08-17T10:14:37.015Z,97958.63
2022-08-17T10:17:09.876Z,97956.25
2022-08-17T10:19:36.022Z,97947.28
2022-08-17T10:22:32.345Z,97957.47
2022-08-17T10:25:22.236Z,97952.03
2022-08-17T10:27:34.466Z,97959.88
2022-08-17T10:30:00.704Z,97956.06
2022-08-17T10:32:27.107Z,97955.81
2022-08-17T10:34:53.263Z,97963.44
2022-08-17T10:37:19.421Z,97955.06
2022-08-17T10:39:52.397Z,97956.63
2022-08-17T10:42:32.391Z,97957.78
2022-08-17T10:44:59.054Z,97952.09
2022-08-17T10:47:25.193Z,97960.97
2022-08-17T10:49:51.376Z,97963.91
2022-08-17T10:52:17.560Z,97966.09
2022-08-17T10:54:43.801Z,97960.97
2022-08-17T10:57:09.956Z,97970.38
2022-08-17T10:59:36.175Z,97962.31
2022-08-17T11:02:02.372Z,97963.50
2022-08-17T11:04:28.517Z,97956.25
2022-08-17T11:06:54.702Z,97965.22
2022-08-17T11:09:20.824Z,97967.72
2022-08-17T11:11:47.007Z,97966.03
2022-08-17T11:14:13.149Z,97967.75
2022-08-17T11:16:39.319Z,97970.22
2022-08-17T11:19:05.460Z,97966.88
2022-08-17T11:21:31.718Z,97968.84
2022-08-17T11:23:57.852Z,97974.75
2022-08-17T11:26:23.991Z,97969.06
2022-08-17T11:28:52.700Z,97976.06
2022-08-17T11:31:19.182Z,97983.56
2022-08-17T11:34:04.419Z,97988.44
2022-08-17T11:36:30.580Z,97990.81
2022-08-17T11:38:56.787Z,97980.50
2022-08-17T11:41:23.474Z,97980.72
2022-08-17T11:43:49.633Z,97982.03
2022-08-17T11:46:15.779Z,97980.06
2022-08-17T11:48:41.924Z,97986.81
2022-08-17T11:51:08.064Z,97976.75
2022-08-17T11:53:34.246Z,97983.03
2022-08-17T11:56:00.431Z,97983.00
2022-08-17T11:58:26.568Z,97990.25
2022-08-17T12:00:52.723Z,97991.78
2022-08-17T12:03:18.990Z,97992.19
2022-08-17T12:05:45.208Z,97982.59
2022-08-17T12:08:11.367Z,97980.72
2022-08-17T12:10:37.811Z,97981.38
2022-08-17T12:13:03.965Z,97987.28
2022-08-17T12:15:30.120Z,97978.69
2022-08-17T12:17:56.571Z,97972.84
2022-08-17T12:20:23.023Z,97964.63
2022-08-17T12:22:49.171Z,97969.53
2022-08-17T12:25:15.372Z,97968.94
2022-08-17T12:28:05.666Z,97959.66
2022-08-17T12:30:27.724Z,97966.19
2022-08-17T12:32:53.904Z,97964.03
2022-08-17T12:35:20.028Z,97967.41
2022-08-17T12:37:46.202Z,97968.22
2022-08-17T12:40:12.459Z,97962.50
2022-08-17T12:42:38.629Z,97963.13
2022-08-17T12:45:04.810Z,97963.38
2022-08-17T12:47:31.722Z,97958.53
2022-08-17T12:49:58.031Z,97960.16
2022-08-17T12:52:24.185Z,97951.38
2022-08-17T12:54:50.317Z,97946.69
2022-08-17T12:57:16.449Z,97932.28
2022-08-17T12:59:42.646Z,97931.97
2022-08-17T13:02:11.522Z,97930.25
2022-08-17T13:04:37.708Z,97937.38
2022-08-17T13:07:03.869Z,97946.75
2022-08-17T13:09:33.535Z,97934.88
2022-08-17T13:12:02.343Z,97932.78
2022-08-17T13:14:31.249Z,97929.94
2022-08-17T13:16:59.468Z,97935.81
2022-08-17T13:19:40.006Z,97939.13
2022-08-17T13:22:07.476Z,97940.75
2022-08-17T13:24:38.143Z,97930.25
2022-08-17T13:27:07.859Z,97928.75
2022-08-17T13:29:34.711Z,97930.84
2022-08-17T13:32:04.703Z,97928.22
2022-08-17T13:34:31.296Z,97928.03
2022-08-17T13:36:59.571Z,97936.16
2022-08-17T13:39:25.913Z,97944.41
2022-08-17T13:41:52.088Z,97952.88
2022-08-17T13:44:18.266Z,97936.84
2022-08-17T13:46:44.409Z,97941.97
2022-08-17T13:49:16.450Z,97937.94
2022-08-17T13:51:42.603Z,97937.56
2022-08-17T13:54:08.750Z,97937.44
2022-08-17T13:56:38.608Z,97937.00
2022-08-17T13:59:05.491Z,97955.03
2022-08-17T14:01:31.730Z,97948.50
2022-08-17T14:03:57.905Z,97969.38
2022-08-17T14:06:53.405Z,97958.91
2022-08-17T14:09:10.209Z,97955.66
2022-08-17T14:11:36.354Z,97960.81
2022-08-17T14:14:02.495Z,97963.66
2022-08-17T14:16:28.648Z,97953.25
2022-08-17T14:18:56.701Z,97956.03
2022-08-17T14:21:23.497Z,97948.53
2022-08-17T14:23:54.319Z,97945.53
2022-08-17T14:26:21.140Z,97942.00
2022-08-17T14:28:56.414Z,97948.28
2022-08-17T14:31:22.932Z,97946.63
2022-08-17T14:33:49.061Z,97941.94
2022-08-17T14:36:15.231Z,97944.38
2022-08-17T14:38:41.390Z,97943.22
2022-08-17T14:41:07.513Z,97945.09
2022-08-17T14:43:33.643Z,97942.84
2022-08-17T14:45:59.866Z,97934.44
2022-08-17T14:48:26.153Z,97937.00
2022-08-17T14:50:52.309Z,97937.09
2022-08-17T14:53:18.466Z,97930.03
2022-08-17T14:55:44.589Z,97934.91
2022-08-17T14:58:13.060Z,97934.84
2022-08-17T15:00:39.213Z,97928.50
2022-08-17T15:03:05.372Z,97933.34
2022-08-17T15:05:31.704Z,97936.53
2022-08-17T15:07:58.076Z,97929.19
2022-08-17T15:10:25.868Z,97925.09
2022-08-17T15:12:52.220Z,97930.75
2022-08-17T15:15:18.772Z,97931.50
2022-08-17T15:17:46.014Z,97929.31
2022-08-17T15:20:14.833Z,97925.59
2022-08-17T15:22:41.368Z,97918.53
2022-08-17T15:25:07.529Z,97922.28
2022-08-17T15:27:33.663Z,97923.97
2022-08-17T15:29:59.980Z,97931.00
2022-08-17T15:32:26.172Z,97926.69
2022-08-17T15:34:52.347Z,97921.25
2022-08-17T15:37:18.506Z,97919.50
2022-08-17T15:39:44.710Z,97921.47
2022-08-17T15:42:10.927Z,97931.59
2022-08-17T15:44:37.126Z,97919.91
2022-08-17T15:47:03.263Z,97930.47
2022-08-17T15:49:31.421Z,97918.09
2022-08-17T15:51:57.654Z,97927.94
2022-08-17T15:54:23.797Z,97923.22
2022-08-17T15:56:49.938Z,97915.44
2022-08-17T15:59:16.102Z,97917.56
2022-08-17T16:03:01.640Z,97918.47
2022-08-17T16:04:30.666Z,97921.47
2022-08-17T16:06:57.278Z,97919.63
2022-08-17T16:09:23.412Z,97909.06
2022-08-17T16:11:52.125Z,97914.09
2022-08-17T16:14:22.143Z,97930.84
2022-08-17T16:16:49.314Z,97929.63
2022-08-17T16:19:15.531Z,97932.88
2022-08-17T16:21:42.965Z,97941.91
2022-08-17T16:24:12.703Z,97931.44
2022-08-17T16:26:39.911Z,97937.44
2022-08-17T16:29:06.042Z,97936.97
2022-08-17T16:31:32.182Z,97950.09
2022-08-17T16:34:15.466Z,97937.63
2022-08-17T16:36:54.750Z,97932.19
2022-08-17T16:39:22.432Z,97942.78
2022-08-17T16:41:48.571Z,97936.22
2022-08-17T16:44:15.216Z,97939.13
2022-08-17T16:46:41.714Z,97930.66
2022-08-17T16:49:12.055Z,97936.38
2022-08-17T16:51:51.873Z,97942.56
2022-08-17T16:54:18.012Z,97940.06
2022-08-17T16:56:44.149Z,97945.22
2022-08-17T16:59:31.156Z,97950.31
2022-08-17T17:01:56.425Z,97952.50
2022-08-17T17:04:22.574Z,97955.44
2022-08-17T17:06:48.728Z,97960.41
2022-08-17T17:09:14.899Z,97952.53
2022-08-17T17:11:41.065Z,97960.78
2022-08-17T17:14:07.212Z,97970.09
2022-08-17T17:16:33.356Z,97957.78
2022-08-17T17:18:59.542Z,97965.56
2022-08-17T17:21:25.894Z,97975.63
2022-08-17T17:23:52.037Z,97979.81
2022-08-17T17:26:18.204Z,97977.44
2022-08-17T17:28:44.366Z,97976.16
2022-08-17T17:31:10.521Z,97977.13
2022-08-17T17:33:36.674Z,97978.94
2022-08-17T17:36:02.790Z,97981.06
2022-08-17T17:38:29.323Z,97971.44
2022-08-17T17:40:55.702Z,97985.91
2022-08-17T17:43:39.067Z,97993.63
2022-08-17T17:46:27.018Z,97997.50
2022-08-17T17:48:54.581Z,97992.81
2022-08-17T17:51:45.580Z,97990.78
2022-08-17T17:54:06.918Z,98002.56
2022-08-17T17:56:43.763Z,98016.13
2022-08-17T17:59:12.817Z,98020.78
2022-08-17T18:01:39.298Z,98021.03
2022-08-17T18:04:05.476Z,98032.28
2022-08-17T18:06:43.787Z,98031.72
2022-08-17T18:09:10.252Z,98034.44
2022-08-17T18:11:37.130Z,98040.28
2022-08-17T18:14:03.696Z,98039.44
2022-08-17T18:16:31.883Z,98040.59
2022-08-17T18:18:58.227Z,98035.25
2022-08-17T18:21:24.369Z,98040.59
2022-08-17T18:23:50.515Z,98041.56
2022-08-17T18:26:16.670Z,98051.16
2022-08-17T18:28:43.128Z,98060.72
2022-08-17T18:31:09.276Z,98060.75
2022-08-17T18:33:35.409Z,98058.41
2022-08-17T18:36:01.742Z,98052.94
2022-08-17T18:38:27.895Z,98059.22
2022-08-17T18:40:54.060Z,98053.28
2022-08-17T18:43:20.233Z,98058.97
2022-08-17T18:45:46.388Z,98057.38
2022-08-17T18:48:12.520Z,98061.97
2022-08-17T18:50:38.658Z,98054.13
2022-08-17T18:53:07.235Z,98053.56
2022-08-17T18:55:33.508Z,98044.91
2022-08-17T18:57:59.726Z,98057.88
2022-08-17T19:00:25.877Z,98054.06
2022-08-17T19:02:52.098Z,98060.53
2022-08-17T19:05:18.319Z,98064.59
2022-08-17T19:07:44.517Z,98073.56
2022-08-17T19:10:10.670Z,98073.00
2022-08-17T19:12:36.823Z,98081.91
2022-08-17T19:15:02.952Z,98083.81
2022-08-17T19:17:29.082Z,98085.38
2022-08-17T19:19:55.287Z,98092.69
2022-08-17T19:22:28.949Z,98093.78
2022-08-17T19:25:03.622Z,98099.69
2022-08-17T19:27:41.307Z,98092.63
2022-08-17T19:30:08.785Z,98099.13
2022-08-17T19:32:34.944Z,98096.06
2022-08-17T19:35:01.085Z,98097.13
2022-08-17T19:37:27.253Z,98102.50
2022-08-17T19:39:53.438Z,98098.44
2022-08-17T19:42:19.621Z,98097.06
2022-08-17T19:44:45.786Z,98096.47
2022-08-17T19:47:11.911Z,98095.59
2022-08-17T19:49:41.415Z,98093.63
2022-08-17T19:52:07.968Z,98093.63
2022-08-17T19:54:35.286Z,98095.66
2022-08-17T19:57:01.611Z,98093.78
2022-08-17T19:59:28.398Z,98094.22
2022-08-17T20:02:01.904Z,98094.09
2022-08-17T20:04:32.525Z,98099.94
2022-08-17T20:06:58.988Z,98094.72
2022-08-17T20:09:25.139Z,98102.31
2022-08-17T20:11:59.517Z,98099.53
2022-08-17T20:14:25.670Z,98103.03
2022-08-17T20:16:51.814Z,98113.44
2022-08-17T20:19:17.982Z,98113.75
2022-08-17T20:21:44.162Z,98104.28
2022-08-17T20:24:10.321Z,98104.97
2022-08-17T20:26:36.505Z,98102.31
2022-08-17T20:29:02.658Z,98100.91
2022-08-17T20:31:30.919Z,98105.28
2022-08-17T20:33:57.307Z,98109.00
2022-08-17T20:36:23.440Z,98114.66
2022-08-17T20:38:49.580Z,98113.06
2022-08-17T20:41:15.779Z,98120.88
2022-08-17T20:43:42.108Z,98118.94
2022-08-17T20:46:08.278Z,98120.47
2022-08-17T20:48:39.053Z,98110.09
2022-08-17T20:51:05.622Z,98111.75
2022-08-17T20:53:31.778Z,98117.34
2022-08-17T20:55:57.913Z,98118.91
2022-08-17T20:58:24.064Z,98116.13
2022-08-17T21:00:56.359Z,98113.56
2022-08-17T21:03:23.094Z,98114.13
2022-08-17T21:05:49.242Z,98118.44
2022-08-17T21:08:23.426Z,98109.19
2022-08-17T21:10:49.556Z,98106.44
2022-08-17T21:13:15.900Z,98117.59
2022-08-17T21:15:42.140Z,98114.66
2022-08-17T21:18:08.291Z,98124.63
2022-08-17T21:20:34.475Z,98115.16
2022-08-17T21:23:00.632Z,98118.09
2022-08-17T21:25:26.777Z,98114.28
2022-08-17T21:27:52.990Z,98121.31
2022-08-17T21:30:19.264Z,98125.56
2022-08-17T21:32:46.973Z,98128.03
2022-08-17T21:35:13.103Z,98126.44
2022-08-17T21:37:39.557Z,98127.56
2022-08-17T21:40:05.765Z,98124.88
2022-08-17T21:42:31.992Z,98123.78
2022-08-17T21:44:58.156Z,98126.66
2022-08-17T21:47:24.300Z,98133.94
2022-08-17T21:49:50.447Z,98130.53
2022-08-17T21:52:16.615Z,98138.09
2022-08-17T21:54:42.751Z,98135.19
2022-08-17T21:57:08.877Z,98136.56
2022-08-17T21:59:35.047Z,98143.50
2022-08-17T22:02:01.203Z,98151.34
2022-08-17T22:04:27.384Z,98155.41
2022-08-17T22:06:57.145Z,98156.56
2022-08-17T22:09:23.855Z,98160.25
2022-08-17T22:11:50.023Z,98157.16
2022-08-17T22:14:16.173Z,98155.91
2022-08-17T22:16:43.666Z,98150.38
2022-08-17T22:19:09.808Z,98148.22
2022-08-17T22:21:35.965Z,98144.97
2022-08-17T22:24:02.112Z,98149.66
2022-08-17T22:26:28.253Z,98159.00
2022-08-17T22:28:54.392Z,98166.34
2022-08-17T22:31:20.548Z,98161.53
2022-08-17T22:33:46.699Z,98160.31
2022-08-17T22:36:12.900Z,98155.03
2022-08-17T22:38:39.039Z,98162.47
2022-08-17T22:41:06.822Z,98165.16
2022-08-17T22:43:34.432Z,98169.31
2022-08-17T22:46:01.191Z,98174.34
2022-08-17T22:48:27.667Z,98172.00
2022-08-17T22:50:54.000Z,98174.59
2022-08-17T22:53:20.178Z,98180.31
2022-08-17T22:55:46.320Z,98188.97
2022-08-17T22:58:12.482Z,98187.25
2022-08-17T23:00:38.626Z,98180.09
2022-08-17T23:03:04.778Z,98176.31
2022-08-17T23:05:30.946Z,98176.75
2022-08-17T23:07:57.085Z,98162.03
2022-08-17T23:10:23.226Z,98171.66
2022-08-17T23:12:49.383Z,98166.84
2022-08-17T23:15:15.538Z,98164.97
2022-08-17T23:17:41.686Z,98159.72
2022-08-17T23:20:07.828Z,98157.22
2022-08-17T23:22:33.996Z,98155.47
2022-08-17T23:25:00.128Z,98163.63
2022-08-17T23:27:26.296Z,98160.28
2022-08-17T23:29:52.423Z,98162.56
2022-08-17T23:32:18.574Z,98159.22
2022-08-17T23:34:44.743Z,98158.03
2022-08-17T23:37:10.873Z,98155.44
2022-08-17T23:39:37.044Z,98158.41
2022-08-17T23:42:03.552Z,98154.00
2022-08-17T23:44:29.689Z,98164.19
2022-08-17T23:46:55.835Z,98167.88
2022-08-17T23:49:21.976Z,98176.25
2022-08-17T23:51:48.176Z,98176.03
2022-08-17T23:54:14.319Z,98170.25
2022-08-17T23:56:40.516Z,98161.28
2022-08-17T23:59:06.652Z,98164.81
